VLG1LP LEBL-LEXJ
Flight info
| Callsign | VLG1LP |
|---|---|
| Flight time | 0h 52m |
| Altitude | 27000 |
| Route | GRAUS M601 POSSY/N0409F290 M601 MALOB/N0391F280 DCT CEGAM M601 BLV |
| Aircraft | A320/M-SDE3FGHIRWY/LB1 |
Departure
| Time | 2026-05-08 12:44 |
|---|---|
| Airport | Josep Tarradellas Barcelona-El Prat Airport (LEBL) |
Arrival
| Time | 2026-05-08 13:36 |
|---|---|
| Airport | Seve Ballesteros-Santander Airport (LEXJ) |
| Time | Latitude | Longitude | Altitude | Speed | Heading |
|---|---|---|---|---|---|
| 2026-05-08 12:13 | 41.29057 | 2.07686 | 3 ft | 0 kts | 155° |
| 2026-05-08 12:33 | 41.29065 | 2.07681 | 4 ft | 2 kts | 155° |
| 2026-05-08 12:33 | 41.29081 | 2.07671 | 4 ft | 2 kts | 155° |
| 2026-05-08 12:33 | 41.29096 | 2.07662 | 5 ft | 3 kts | 164° |
| 2026-05-08 12:33 | 41.29113 | 2.07658 | 4 ft | 3 kts | 189° |
| 2026-05-08 12:34 | 41.29130 | 2.07663 | 4 ft | 2 kts | 194° |
| 2026-05-08 12:34 | 41.29142 | 2.07667 | 4 ft | 1 kts | 191° |
| 2026-05-08 12:34 | 41.29159 | 2.07668 | 3 ft | 3 kts | 158° |
| 2026-05-08 12:34 | 41.29171 | 2.07660 | 5 ft | 2 kts | 155° |
| 2026-05-08 12:35 | 41.29180 | 2.07655 | 4 ft | 0 kts | 155° |
| 2026-05-08 12:37 | 41.29168 | 2.07669 | 3 ft | 8 kts | 128° |
| 2026-05-08 12:38 | 41.29180 | 2.07774 | 3 ft | 14 kts | 67° |
| 2026-05-08 12:38 | 41.29221 | 2.07896 | 4 ft | 15 kts | 66° |
| 2026-05-08 12:38 | 41.29268 | 2.08030 | 4 ft | 17 kts | 66° |
| 2026-05-08 12:38 | 41.29319 | 2.08177 | 3 ft | 18 kts | 65° |
| 2026-05-08 12:39 | 41.29368 | 2.08324 | 4 ft | 13 kts | 73° |
| 2026-05-08 12:39 | 41.29318 | 2.08410 | 3 ft | 14 kts | 155° |
| 2026-05-08 12:39 | 41.29226 | 2.08467 | 3 ft | 15 kts | 156° |
| 2026-05-08 12:39 | 41.29125 | 2.08526 | 5 ft | 16 kts | 155° |
| 2026-05-08 12:40 | 41.29017 | 2.08593 | 10 ft | 17 kts | 155° |
| 2026-05-08 12:40 | 41.28902 | 2.08660 | 5 ft | 19 kts | 156° |
| 2026-05-08 12:40 | 41.28879 | 2.08779 | 5 ft | 16 kts | 65° |
| 2026-05-08 12:40 | 41.28926 | 2.08919 | 3 ft | 18 kts | 65° |
| 2026-05-08 12:41 | 41.28979 | 2.09073 | 5 ft | 19 kts | 65° |
| 2026-05-08 12:41 | 41.29037 | 2.09240 | 4 ft | 21 kts | 65° |
| 2026-05-08 12:41 | 41.29100 | 2.09425 | 3 ft | 23 kts | 65° |
| 2026-05-08 12:41 | 41.29167 | 2.09621 | 4 ft | 24 kts | 65° |
| 2026-05-08 12:42 | 41.29238 | 2.09828 | 3 ft | 25 kts | 65° |
| 2026-05-08 12:42 | 41.29279 | 2.09996 | 3 ft | 17 kts | 102° |
| 2026-05-08 12:42 | 41.29242 | 2.10143 | 5 ft | 17 kts | 114° |
| 2026-05-08 12:42 | 41.29245 | 2.10282 | 5 ft | 14 kts | 127° |
| 2026-05-08 12:43 | 41.29183 | 2.10231 | 6 ft | 18 kts | 251° |
| 2026-05-08 12:43 | 41.29076 | 2.09910 | 8 ft | 70 kts | 246° |
| 2026-05-08 12:43 | 41.28774 | 2.09022 | 6 ft | 138 kts | 244° |
| 2026-05-08 12:43 | 41.28315 | 2.07666 | 235 ft | 170 kts | 244° |
| 2026-05-08 12:44 | 41.27742 | 2.06346 | 1053 ft | 162 kts | 216° |
| 2026-05-08 12:44 | 41.26681 | 2.05823 | 1734 ft | 167 kts | 188° |
| 2026-05-08 12:44 | 41.25518 | 2.05547 | 2355 ft | 175 kts | 187° |
| 2026-05-08 12:44 | 41.24267 | 2.05259 | 2784 ft | 191 kts | 189° |
| 2026-05-08 12:45 | 41.22900 | 2.04929 | 3192 ft | 208 kts | 189° |
| 2026-05-08 12:45 | 41.21412 | 2.04561 | 3513 ft | 231 kts | 189° |
| 2026-05-08 12:45 | 41.19811 | 2.04135 | 4281 ft | 233 kts | 191° |
| 2026-05-08 12:45 | 41.18247 | 2.03619 | 5175 ft | 237 kts | 204° |
| 2026-05-08 12:46 | 41.16997 | 2.02111 | 5703 ft | 255 kts | 236° |
| 2026-05-08 12:46 | 41.16084 | 2.00045 | 6511 ft | 266 kts | 238° |
| 2026-05-08 12:46 | 41.15095 | 1.97897 | 7173 ft | 276 kts | 236° |
| 2026-05-08 12:46 | 41.14033 | 1.95779 | 8081 ft | 276 kts | 233° |
| 2026-05-08 12:47 | 41.13098 | 1.93514 | 8831 ft | 286 kts | 250° |
| 2026-05-08 12:47 | 41.12614 | 1.90940 | 9676 ft | 288 kts | 253° |
| 2026-05-08 12:47 | 41.12223 | 1.88332 | 10504 ft | 292 kts | 268° |
| 2026-05-08 12:47 | 41.12590 | 1.85672 | 11030 ft | 308 kts | 291° |
| 2026-05-08 12:48 | 41.13854 | 1.83306 | 11516 ft | 325 kts | 317° |
| 2026-05-08 12:48 | 41.15535 | 1.81207 | 11926 ft | 339 kts | 310° |
| 2026-05-08 12:48 | 41.17038 | 1.78765 | 12576 ft | 344 kts | 305° |
| 2026-05-08 12:48 | 41.18439 | 1.76174 | 13320 ft | 347 kts | 303° |
| 2026-05-08 12:49 | 41.19820 | 1.73542 | 14028 ft | 350 kts | 303° |
| 2026-05-08 12:49 | 41.21221 | 1.70923 | 14678 ft | 353 kts | 303° |
| 2026-05-08 12:49 | 41.22683 | 1.68291 | 15333 ft | 355 kts | 304° |
| 2026-05-08 12:49 | 41.24189 | 1.65667 | 15990 ft | 358 kts | 304° |
| 2026-05-08 12:50 | 41.25725 | 1.63040 | 16636 ft | 361 kts | 304° |
| 2026-05-08 12:50 | 41.27280 | 1.60402 | 17275 ft | 364 kts | 304° |
| 2026-05-08 12:50 | 41.28848 | 1.57748 | 17908 ft | 367 kts | 304° |
| 2026-05-08 12:50 | 41.30432 | 1.55063 | 18496 ft | 370 kts | 304° |
| 2026-05-08 12:51 | 41.32023 | 1.52358 | 19030 ft | 373 kts | 303° |
| 2026-05-08 12:51 | 41.35237 | 1.46865 | 20095 ft | 379 kts | 303° |
| 2026-05-08 12:51 | 41.36861 | 1.44082 | 20634 ft | 382 kts | 302° |
| 2026-05-08 12:52 | 41.38497 | 1.41274 | 21157 ft | 385 kts | 302° |
| 2026-05-08 12:52 | 41.41814 | 1.35583 | 22228 ft | 392 kts | 302° |
| 2026-05-08 12:52 | 41.43489 | 1.32703 | 22750 ft | 395 kts | 302° |
| 2026-05-08 12:53 | 41.45180 | 1.29795 | 23267 ft | 398 kts | 301° |
| 2026-05-08 12:53 | 41.46883 | 1.26864 | 23694 ft | 403 kts | 301° |
| 2026-05-08 12:53 | 41.48617 | 1.23866 | 23829 ft | 414 kts | 301° |
| 2026-05-08 12:53 | 41.50399 | 1.20781 | 23946 ft | 424 kts | 302° |
| 2026-05-08 12:54 | 41.52219 | 1.17630 | 24063 ft | 434 kts | 302° |
| 2026-05-08 12:54 | 41.54077 | 1.14415 | 24181 ft | 442 kts | 302° |
| 2026-05-08 12:54 | 41.55971 | 1.11144 | 24295 ft | 449 kts | 302° |
| 2026-05-08 12:54 | 41.57895 | 1.07820 | 24401 ft | 455 kts | 302° |
| 2026-05-08 12:55 | 41.59844 | 1.04446 | 24531 ft | 461 kts | 302° |
| 2026-05-08 12:55 | 41.61811 | 1.01033 | 24647 ft | 466 kts | 302° |
| 2026-05-08 12:55 | 41.63794 | 0.97579 | 24765 ft | 471 kts | 302° |
| 2026-05-08 12:55 | 41.65795 | 0.94093 | 24900 ft | 474 kts | 302° |
| 2026-05-08 12:56 | 41.67809 | 0.90592 | 25110 ft | 475 kts | 303° |
| 2026-05-08 12:56 | 41.69797 | 0.87133 | 25368 ft | 475 kts | 303° |
| 2026-05-08 12:56 | 41.71811 | 0.83622 | 25509 ft | 478 kts | 303° |
| 2026-05-08 12:56 | 41.73839 | 0.80074 | 25630 ft | 480 kts | 303° |
| 2026-05-08 12:57 | 41.75868 | 0.76516 | 25755 ft | 482 kts | 303° |
| 2026-05-08 12:57 | 41.77903 | 0.72939 | 25889 ft | 484 kts | 303° |
| 2026-05-08 12:57 | 41.79948 | 0.69346 | 26005 ft | 485 kts | 303° |
| 2026-05-08 12:57 | 41.81994 | 0.65751 | 26135 ft | 486 kts | 303° |
| 2026-05-08 12:58 | 41.84049 | 0.62139 | 26259 ft | 487 kts | 303° |
| 2026-05-08 12:58 | 41.86107 | 0.58521 | 26382 ft | 488 kts | 303° |
| 2026-05-08 12:58 | 41.88169 | 0.54895 | 26516 ft | 489 kts | 303° |
| 2026-05-08 12:58 | 41.90232 | 0.51255 | 26645 ft | 490 kts | 303° |
| 2026-05-08 12:59 | 41.92289 | 0.47611 | 26787 ft | 490 kts | 303° |
| 2026-05-08 12:59 | 41.94347 | 0.43956 | 26922 ft | 490 kts | 303° |
| 2026-05-08 12:59 | 41.96406 | 0.40301 | 27055 ft | 491 kts | 303° |
| 2026-05-08 12:59 | 41.98309 | 0.36523 | 27199 ft | 486 kts | 295° |
| 2026-05-08 13:00 | 41.99850 | 0.32490 | 27355 ft | 485 kts | 292° |
| 2026-05-08 13:00 | 42.01371 | 0.28444 | 27503 ft | 485 kts | 292° |
| 2026-05-08 13:00 | 42.02893 | 0.24390 | 27661 ft | 485 kts | 292° |
| 2026-05-08 13:00 | 42.04412 | 0.20338 | 27811 ft | 485 kts | 292° |
| 2026-05-08 13:01 | 42.05932 | 0.16281 | 27955 ft | 486 kts | 292° |
| 2026-05-08 13:01 | 42.06940 | 0.13588 | 28061 ft | 486 kts | 292° |
| 2026-05-08 13:01 | 42.08457 | 0.09525 | 28219 ft | 486 kts | 292° |
| 2026-05-08 13:01 | 42.09972 | 0.05452 | 28394 ft | 486 kts | 292° |
| 2026-05-08 13:02 | 42.11484 | 0.01379 | 28570 ft | 486 kts | 292° |
| 2026-05-08 13:02 | 42.12995 | -0.02699 | 28743 ft | 486 kts | 292° |
| 2026-05-08 13:02 | 42.14508 | -0.06779 | 28932 ft | 486 kts | 292° |
| 2026-05-08 13:02 | 42.15933 | -0.10638 | 29023 ft | 487 kts | 292° |
| 2026-05-08 13:03 | 42.18952 | -0.18815 | 29025 ft | 487 kts | 292° |
| 2026-05-08 13:03 | 42.21978 | -0.27012 | 29031 ft | 488 kts | 292° |
| 2026-05-08 13:04 | 42.24999 | -0.35230 | 29023 ft | 489 kts | 292° |
| 2026-05-08 13:04 | 42.28018 | -0.43476 | 29020 ft | 491 kts | 292° |
| 2026-05-08 13:05 | 42.31046 | -0.51754 | 29014 ft | 491 kts | 292° |
| 2026-05-08 13:05 | 42.34075 | -0.60036 | 29004 ft | 492 kts | 292° |
| 2026-05-08 13:06 | 42.37079 | -0.68289 | 28995 ft | 493 kts | 292° |
| 2026-05-08 13:06 | 42.40115 | -0.76670 | 28997 ft | 492 kts | 292° |
| 2026-05-08 13:07 | 42.43100 | -0.84952 | 28992 ft | 493 kts | 292° |
| 2026-05-08 13:07 | 42.46097 | -0.93307 | 28982 ft | 493 kts | 292° |
| 2026-05-08 13:08 | 42.49097 | -1.01679 | 28988 ft | 494 kts | 292° |
| 2026-05-08 13:08 | 42.52102 | -1.10060 | 28989 ft | 495 kts | 292° |
| 2026-05-08 13:09 | 42.55110 | -1.18470 | 28970 ft | 495 kts | 292° |
| 2026-05-08 13:09 | 42.58104 | -1.26891 | 28971 ft | 496 kts | 292° |
| 2026-05-08 13:10 | 42.61093 | -1.35328 | 28976 ft | 496 kts | 292° |
| 2026-05-08 13:10 | 42.64080 | -1.43759 | 28979 ft | 496 kts | 292° |
| 2026-05-08 13:11 | 42.67072 | -1.52211 | 28986 ft | 496 kts | 292° |
| 2026-05-08 13:11 | 42.70049 | -1.60668 | 28989 ft | 496 kts | 292° |
| 2026-05-08 13:12 | 42.73016 | -1.69143 | 28982 ft | 498 kts | 294° |
| 2026-05-08 13:12 | 42.76668 | -1.77199 | 28986 ft | 501 kts | 300° |
| 2026-05-08 13:13 | 42.80402 | -1.85125 | 28979 ft | 501 kts | 300° |
| 2026-05-08 13:13 | 42.84151 | -1.93124 | 28963 ft | 501 kts | 300° |
| 2026-05-08 13:14 | 42.87892 | -2.01137 | 28945 ft | 501 kts | 300° |
| 2026-05-08 13:14 | 42.91634 | -2.09153 | 28934 ft | 501 kts | 300° |
| 2026-05-08 13:15 | 42.95235 | -2.16865 | 28925 ft | 502 kts | 300° |
| 2026-05-08 13:15 | 42.98977 | -2.24911 | 28917 ft | 502 kts | 300° |
| 2026-05-08 13:16 | 43.02745 | -2.32966 | 28907 ft | 503 kts | 301° |
| 2026-05-08 13:16 | 43.06538 | -2.41013 | 28907 ft | 504 kts | 301° |
| 2026-05-08 13:17 | 43.08432 | -2.45037 | 28684 ft | 502 kts | 301° |
| 2026-05-08 13:17 | 43.10309 | -2.49050 | 27805 ft | 501 kts | 300° |
| 2026-05-08 13:17 | 43.11285 | -2.51146 | 27182 ft | 500 kts | 300° |
| 2026-05-08 13:17 | 43.12991 | -2.54807 | 26517 ft | 500 kts | 300° |
| 2026-05-08 13:18 | 43.14854 | -2.58817 | 25843 ft | 497 kts | 300° |
| 2026-05-08 13:18 | 43.16684 | -2.62761 | 25272 ft | 484 kts | 300° |
| 2026-05-08 13:18 | 43.18464 | -2.66599 | 24727 ft | 473 kts | 300° |
| 2026-05-08 13:18 | 43.20208 | -2.70367 | 24189 ft | 464 kts | 299° |
| 2026-05-08 13:19 | 43.21922 | -2.74072 | 23658 ft | 455 kts | 299° |
| 2026-05-08 13:19 | 43.23599 | -2.77702 | 23063 ft | 448 kts | 299° |
| 2026-05-08 13:19 | 43.25233 | -2.81242 | 22448 ft | 441 kts | 299° |
| 2026-05-08 13:19 | 43.26859 | -2.84776 | 21837 ft | 435 kts | 299° |
| 2026-05-08 13:20 | 43.28464 | -2.88267 | 21242 ft | 430 kts | 300° |
| 2026-05-08 13:20 | 43.29989 | -2.91761 | 20657 ft | 423 kts | 292° |
| 2026-05-08 13:20 | 43.30891 | -2.95549 | 20081 ft | 414 kts | 278° |
| 2026-05-08 13:20 | 43.31480 | -2.99397 | 19514 ft | 410 kts | 278° |
| 2026-05-08 13:21 | 43.32054 | -3.03214 | 18964 ft | 407 kts | 278° |
| 2026-05-08 13:21 | 43.32618 | -3.07009 | 18384 ft | 403 kts | 278° |
| 2026-05-08 13:21 | 43.33168 | -3.10704 | 17741 ft | 388 kts | 278° |
| 2026-05-08 13:21 | 43.33701 | -3.14272 | 17074 ft | 375 kts | 278° |
| 2026-05-08 13:22 | 43.34218 | -3.17727 | 16420 ft | 363 kts | 278° |
| 2026-05-08 13:22 | 43.34719 | -3.21069 | 15787 ft | 353 kts | 278° |
| 2026-05-08 13:22 | 43.35204 | -3.24329 | 15165 ft | 344 kts | 278° |
| 2026-05-08 13:22 | 43.35675 | -3.27516 | 14546 ft | 337 kts | 279° |
| 2026-05-08 13:23 | 43.36033 | -3.30657 | 13943 ft | 327 kts | 266° |
| 2026-05-08 13:23 | 43.35605 | -3.33624 | 13315 ft | 313 kts | 243° |
| 2026-05-08 13:23 | 43.34689 | -3.36300 | 12645 ft | 306 kts | 241° |
| 2026-05-08 13:23 | 43.33772 | -3.38920 | 12000 ft | 302 kts | 241° |
| 2026-05-08 13:24 | 43.32893 | -3.41510 | 11362 ft | 298 kts | 246° |
| 2026-05-08 13:24 | 43.32588 | -3.44306 | 10746 ft | 297 kts | 266° |
| 2026-05-08 13:24 | 43.32580 | -3.47122 | 10137 ft | 294 kts | 271° |
| 2026-05-08 13:24 | 43.33094 | -3.49829 | 9514 ft | 296 kts | 296° |
| 2026-05-08 13:25 | 43.34417 | -3.51976 | 8983 ft | 298 kts | 322° |
| 2026-05-08 13:25 | 43.36296 | -3.53138 | 8467 ft | 299 kts | 349° |
| 2026-05-08 13:25 | 43.38334 | -3.53081 | 8006 ft | 298 kts | 17° |
| 2026-05-08 13:25 | 43.40153 | -3.51800 | 7695 ft | 294 kts | 44° |
| 2026-05-08 13:26 | 43.41354 | -3.49602 | 7390 ft | 288 kts | 71° |
| 2026-05-08 13:26 | 43.41707 | -3.46973 | 7090 ft | 278 kts | 98° |
| 2026-05-08 13:26 | 43.41320 | -3.44390 | 6785 ft | 275 kts | 109° |
| 2026-05-08 13:26 | 43.40782 | -3.41878 | 6491 ft | 272 kts | 111° |
| 2026-05-08 13:27 | 43.40235 | -3.39404 | 6197 ft | 271 kts | 111° |
| 2026-05-08 13:27 | 43.39679 | -3.36909 | 5966 ft | 271 kts | 110° |
| 2026-05-08 13:27 | 43.39128 | -3.34420 | 5966 ft | 272 kts | 111° |
| 2026-05-08 13:27 | 43.38584 | -3.31939 | 5972 ft | 270 kts | 110° |
| 2026-05-08 13:28 | 43.37905 | -3.29549 | 5977 ft | 267 kts | 127° |
| 2026-05-08 13:28 | 43.36593 | -3.27835 | 5970 ft | 260 kts | 155° |
| 2026-05-08 13:28 | 43.34869 | -3.27227 | 5970 ft | 256 kts | 181° |
| 2026-05-08 13:28 | 43.33171 | -3.27864 | 5973 ft | 256 kts | 210° |
| 2026-05-08 13:29 | 43.31916 | -3.29584 | 5975 ft | 259 kts | 239° |
| 2026-05-08 13:29 | 43.31417 | -3.31964 | 5977 ft | 265 kts | 265° |
| 2026-05-08 13:29 | 43.31639 | -3.34517 | 5864 ft | 272 kts | 278° |
| 2026-05-08 13:29 | 43.32021 | -3.36995 | 5675 ft | 258 kts | 278° |
| 2026-05-08 13:30 | 43.32398 | -3.39344 | 5509 ft | 245 kts | 278° |
| 2026-05-08 13:30 | 43.32764 | -3.41630 | 5331 ft | 247 kts | 277° |
| 2026-05-08 13:30 | 43.33124 | -3.43925 | 5157 ft | 245 kts | 277° |
| 2026-05-08 13:30 | 43.33480 | -3.46217 | 4986 ft | 246 kts | 277° |
| 2026-05-08 13:31 | 43.33802 | -3.48505 | 4822 ft | 244 kts | 277° |
| 2026-05-08 13:31 | 43.34284 | -3.50735 | 4541 ft | 244 kts | 284° |
| 2026-05-08 13:31 | 43.34870 | -3.52914 | 4220 ft | 242 kts | 285° |
| 2026-05-08 13:31 | 43.35458 | -3.55056 | 3910 ft | 239 kts | 285° |
| 2026-05-08 13:32 | 43.36039 | -3.57202 | 3588 ft | 238 kts | 285° |
| 2026-05-08 13:32 | 43.36611 | -3.59317 | 3284 ft | 233 kts | 286° |
| 2026-05-08 13:32 | 43.37166 | -3.61376 | 2969 ft | 231 kts | 285° |
| 2026-05-08 13:32 | 43.37714 | -3.63400 | 2669 ft | 218 kts | 284° |
| 2026-05-08 13:33 | 43.38220 | -3.65269 | 2411 ft | 203 kts | 284° |
| 2026-05-08 13:33 | 43.38704 | -3.67070 | 2148 ft | 197 kts | 283° |
| 2026-05-08 13:33 | 43.39170 | -3.68808 | 1925 ft | 189 kts | 285° |
| 2026-05-08 13:33 | 43.39616 | -3.70448 | 1739 ft | 177 kts | 284° |
| 2026-05-08 13:34 | 43.40021 | -3.71913 | 1651 ft | 151 kts | 283° |
| 2026-05-08 13:34 | 43.40365 | -3.73216 | 1374 ft | 142 kts | 282° |
| 2026-05-08 13:34 | 43.40714 | -3.74540 | 1118 ft | 153 kts | 284° |
| 2026-05-08 13:34 | 43.41075 | -3.75897 | 961 ft | 149 kts | 283° |
| 2026-05-08 13:35 | 43.41415 | -3.77186 | 719 ft | 139 kts | 288° |
| 2026-05-08 13:35 | 43.41741 | -3.78383 | 444 ft | 125 kts | 288° |
| 2026-05-08 13:35 | 43.42037 | -3.79515 | 242 ft | 129 kts | 291° |
| 2026-05-08 13:35 | 43.42337 | -3.80636 | 83 ft | 119 kts | 291° |
| 2026-05-08 13:36 | 43.42615 | -3.81653 | 24 ft | 101 kts | 290° |
| 2026-05-08 13:36 | 43.42803 | -3.82344 | 20 ft | 51 kts | 292° |
| 2026-05-08 13:36 | 43.42897 | -3.82703 | 21 ft | 36 kts | 291° |
| 2026-05-08 13:36 | 43.42942 | -3.82915 | 20 ft | 13 kts | 264° |
| 2026-05-08 13:37 | 43.42904 | -3.83023 | 20 ft | 13 kts | 224° |
| 2026-05-08 13:37 | 43.42824 | -3.83024 | 22 ft | 12 kts | 147° |
| 2026-05-08 13:37 | 43.42788 | -3.82937 | 22 ft | 10 kts | 108° |
| 2026-05-08 13:37 | 43.42766 | -3.82853 | 21 ft | 9 kts | 111° |
| 2026-05-08 13:38 | 43.42746 | -3.82781 | 21 ft | 7 kts | 111° |
| 2026-05-08 13:38 | 43.42729 | -3.82718 | 22 ft | 8 kts | 109° |
| 2026-05-08 13:38 | 43.42692 | -3.82588 | 20 ft | 16 kts | 109° |
| 2026-05-08 13:38 | 43.42658 | -3.82448 | 22 ft | 15 kts | 109° |
| 2026-05-08 13:39 | 43.42628 | -3.82334 | 22 ft | 7 kts | 111° |
| 2026-05-08 13:39 | 43.42601 | -3.82298 | 20 ft | 5 kts | 169° |
| 2026-05-08 13:39 | 43.42550 | -3.82318 | 21 ft | 8 kts | 202° |
| 2026-05-08 13:39 | 43.42501 | -3.82341 | 23 ft | 7 kts | 199° |
| 2026-05-08 13:40 | 43.42459 | -3.82355 | 23 ft | 5 kts | 179° |
| 2026-05-08 13:40 | 43.42438 | -3.82330 | 21 ft | 3 kts | 116° |
| 2026-05-08 13:40 | 43.42431 | -3.82299 | 21 ft | 3 kts | 106° |
| 2026-05-08 13:40 | 43.42425 | -3.82269 | 21 ft | 3 kts | 107° |
| 2026-05-08 13:41 | 43.42401 | -3.82253 | 21 ft | 4 kts | 191° |
| 2026-05-08 13:41 | 43.42394 | -3.82266 | 21 ft | 1 kts | 237° |
| 2026-05-08 13:41 | 43.42391 | -3.82274 | 21 ft | 1 kts | 243° |
| 2026-05-08 13:41 | 43.42386 | -3.82288 | 21 ft | 1 kts | 243° |
| 2026-05-08 13:42 | 43.42382 | -3.82298 | 21 ft | 1 kts | 242° |
| 2026-05-08 13:42 | 43.42382 | -3.82299 | 21 ft | 0 kts | 242° |